Time;durP1;ratioP1;P1;durP2;ratioP2;P2;SDS_P1;SDS_P2;PMS_P1;PMS_P2;Temp;Humidity;BMP_temperature;BMP_pressure;BME280_temperature;BME280_humidity;BME280_pressure;Samples;Min_cycle;Max_cycle;Signal;HPM_P1;HPM_P2
2022/04/08 00:02:19;;;;;;;;;0.00;0.00;;;;;10.45;53.80;99746.69;4829404;29;45545;-86
2022/04/08 00:08:07;;;;;;;;;2.00;0.00;;;;;10.47;53.82;99757.03;4828596;29;45645;-87
2022/04/08 00:10:32;;;;;;;;;1.50;0.00;;;;;10.41;53.58;99734.81;4828467;29;45730;-84
2022/04/08 00:12:58;;;;;;;;;0.00;0.00;;;;;10.47;53.57;99743.94;4810281;29;46996;-86
2022/04/08 00:15:23;;;;;;;;;0.00;0.00;;;;;10.51;53.77;99761.06;4827527;29;45632;-86
2022/04/08 00:17:49;;;;;;;;;0.00;0.00;;;;;10.51;53.47;99755.81;4828627;29;45660;-85
2022/04/08 00:23:36;;;;;;;;;0.00;0.00;;;;;10.58;53.72;99728.13;4829112;29;45629;-85
2022/04/08 00:26:01;;;;;;;;;0.00;0.00;;;;;10.61;53.93;99738.38;4814484;29;45565;-86
2022/04/08 00:28:27;;;;;;;;;0.00;0.00;;;;;10.55;53.71;99733.63;4831600;29;45723;-85
2022/04/08 00:30:53;;;;;;;;;0.00;0.00;;;;;10.58;53.93;99728.13;4831317;29;45434;-86
2022/04/08 00:33:18;;;;;;;;;0.50;0.00;;;;;10.53;54.00;99720.66;4815379;29;48318;-86
2022/04/08 00:39:05;;;;;;;;;0.00;0.00;;;;;10.60;54.00;99738.47;4829625;29;45541;-86
2022/04/08 00:41:31;;;;;;;;;0.75;0.00;;;;;10.60;54.24;99728.00;4831913;29;46101;-88
2022/04/08 00:43:56;;;;;;;;;0.75;0.00;;;;;10.65;54.31;99737.13;4815452;29;47156;-84
2022/04/08 00:46:21;;;;;;;;;0.00;0.00;;;;;10.61;54.20;99722.66;4831975;29;45884;-87
2022/04/08 00:48:47;;;;;;;;;1.00;0.00;;;;;10.65;54.22;99717.97;4829398;29;45573;-86
2022/04/08 00:51:14;;;;;;;;;0.25;0.00;;;;;10.68;54.63;99715.09;4811693;29;48014;-86
2022/04/08 00:53:40;;;;;;;;;0.00;0.00;;;;;10.70;54.39;99719.22;4812071;29;45755;-86
2022/04/08 00:56:06;;;;;;;;;0.25;0.00;;;;;10.71;54.28;99720.06;4826311;29;45862;-86
2022/04/08 00:58:34;;;;;;;;;0.00;0.00;;;;;10.67;54.42;99711.66;4826079;29;45747;-86
2022/04/08 01:01:00;;;;;;;;;1.00;0.00;;;;;10.70;54.84;99723.63;4824804;29;45848;-85
2022/04/08 01:03:26;;;;;;;;;2.00;0.00;;;;;10.70;54.46;99729.72;4824767;29;46042;-85
2022/04/08 01:09:15;;;;;;;;;0.75;0.00;;;;;10.71;54.57;99706.97;4824870;29;45697;-86
2022/04/08 01:11:41;;;;;;;;;0.00;0.00;;;;;10.75;54.82;99709.19;4824557;29;45766;-85
2022/04/08 01:14:08;;;;;;;;;0.00;0.00;;;;;10.76;54.50;99707.41;4807839;29;46307;-86
2022/04/08 01:16:33;;;;;;;;;0.75;0.00;;;;;10.83;54.57;99711.16;4824455;29;45643;-87
2022/04/08 01:18:59;;;;;;;;;0.50;0.00;;;;;10.84;54.51;99697.09;4811098;29;45851;-88
2022/04/08 01:21:25;;;;;;;;;0.00;0.00;;;;;10.89;54.58;99702.75;4842847;29;47557;-85
2022/04/08 01:23:55;;;;;;;;;0.00;0.00;;;;;10.86;54.59;99698.59;4842514;29;45133;-86
2022/04/08 01:26:20;;;;;;;;;1.00;0.00;;;;;10.89;54.68;99708.84;4822408;29;45496;-85
2022/04/08 01:28:46;;;;;;;;;0.00;0.00;;;;;10.82;54.54;99691.16;4831261;29;45665;-85
2022/04/08 01:31:12;;;;;;;;;0.75;0.00;;;;;10.82;54.64;99701.63;4825791;29;47891;-86
2022/04/08 01:33:37;;;;;;;;;1.00;0.00;;;;;10.81;54.42;99699.97;4824701;29;45561;-86
2022/04/08 01:39:25;;;;;;;;;0.00;0.00;;;;;10.83;54.49;99690.19;4823494;29;45667;-86
2022/04/08 01:41:50;;;;;;;;;0.00;0.00;;;;;10.85;54.68;99694.31;4824061;29;45721;-83
2022/04/08 01:44:15;;;;;;;;;2.25;0.00;;;;;10.86;54.66;99687.28;4823997;29;45695;-83
2022/04/08 01:46:41;;;;;;;;;1.00;0.00;;;;;10.84;54.63;99686.63;4807636;29;46224;-85
2022/04/08 01:49:06;;;;;;;;;1.50;0.00;;;;;10.82;54.84;99684.13;4824013;29;45610;-83
2022/04/08 01:54:53;;;;;;;;;0.50;0.00;;;;;10.80;54.87;99679.97;4823431;29;45766;-85
2022/04/08 01:57:22;;;;;;;;;0.00;0.00;;;;;10.75;54.87;99674.28;4823825;29;45619;-86
2022/04/08 01:59:47;;;;;;;;;0.00;0.00;;;;;10.71;54.70;99665.88;4824073;29;45541;-86
2022/04/08 02:02:13;;;;;;;;;0.00;0.00;;;;;10.69;54.69;99670.41;4823877;29;46396;-83
2022/04/08 02:04:38;;;;;;;;;0.00;0.00;;;;;10.74;54.88;99673.47;4823964;29;45836;-87
2022/04/08 02:07:06;;;;;;;;;1.00;0.00;;;;;10.76;54.94;99674.16;4807135;29;45723;-84
2022/04/08 02:09:31;;;;;;;;;0.00;0.00;;;;;10.71;54.80;99670.28;4824044;29;45674;-84
2022/04/08 02:11:57;;;;;;;;;0.00;0.00;;;;;10.77;55.00;99675.00;4823546;29;46294;-84
2022/04/08 02:14:22;;;;;;;;;1.50;0.00;;;;;10.79;54.90;99673.09;4823470;29;45741;-86
2022/04/08 02:16:48;;;;;;;;;0.00;0.00;;;;;10.75;55.05;99662.03;4823465;29;45653;-87
2022/04/08 02:19:13;;;;;;;;;2.00;0.00;;;;;10.78;55.00;99667.00;4824060;29;45685;-85
2022/04/08 02:25:01;;;;;;;;;0.00;0.00;;;;;10.77;55.07;99670.59;4823396;29;45748;-86
2022/04/08 02:27:28;;;;;;;;;0.00;0.00;;;;;10.79;55.19;99666.06;4823936;29;45713;-85
2022/04/08 02:29:58;;;;;;;;;0.00;0.00;;;;;10.79;55.34;99662.59;4824629;29;45630;-83
2022/04/08 02:32:23;;;;;;;;;0.00;0.00;;;;;10.79;55.16;99650.34;4806675;29;48415;-84
2022/04/08 02:34:50;;;;;;;;;0.00;0.00;;;;;10.81;55.59;99658.03;4823704;29;46321;-86
2022/04/08 02:40:38;;;;;;;;;0.75;0.00;;;;;10.77;55.66;99649.63;4822246;29;46574;-87
2022/04/08 02:43:03;;;;;;;;;0.50;0.00;;;;;10.78;55.57;99646.06;4824600;29;46453;-86
2022/04/08 02:45:29;;;;;;;;;0.00;0.00;;;;;10.77;55.78;99640.94;4823297;29;45602;-86
2022/04/08 02:47:55;;;;;;;;;0.00;0.00;;;;;10.76;55.89;99642.72;4825588;29;45568;-84
2022/04/08 02:50:20;;;;;;;;;0.50;0.00;;;;;10.73;55.85;99640.38;4826462;29;45524;-86
2022/04/08 02:52:45;;;;;;;;;0.00;0.00;;;;;10.68;55.93;99636.50;4825461;29;45644;-83
2022/04/08 02:55:11;;;;;;;;;0.50;0.00;;;;;10.66;56.28;99635.81;4824311;29;45761;-86
2022/04/08 02:57:44;;;;;;;;;0.00;0.00;;;;;10.67;56.18;99637.47;4824176;29;45653;-82
2022/04/08 03:00:15;;;;;;;;;0.00;0.00;;;;;10.58;56.42;99630.41;4824518;29;45731;-84
2022/04/08 03:02:40;;;;;;;;;0.00;0.00;;;;;10.62;56.24;99631.81;4823739;29;47211;-88
2022/04/08 03:05:06;;;;;;;;;0.00;0.00;;;;;10.65;56.90;99631.53;4806077;29;47046;-85
2022/04/08 03:10:53;;;;;;;;;0.00;0.00;;;;;10.68;56.78;99613.78;4823136;29;45672;-83
2022/04/08 03:13:18;;;;;;;;;0.00;0.00;;;;;10.71;56.47;99615.28;4823057;29;45615;-86
2022/04/08 03:15:44;;;;;;;;;0.00;0.00;;;;;10.77;56.69;99618.19;4822915;29;45904;-87
2022/04/08 03:18:09;;;;;;;;;0.25;0.00;;;;;10.81;56.63;99622.19;4824050;29;45774;-86
2022/04/08 03:20:34;;;;;;;;;0.00;0.00;;;;;10.81;56.17;99613.50;4810084;29;46031;-87
2022/04/08 03:26:22;;;;;;;;;0.50;0.00;;;;;10.84;56.56;99605.38;4827131;29;46228;-86
2022/04/08 03:28:48;;;;;;;;;0.00;0.00;;;;;10.90;56.86;99615.34;4827362;29;45704;-87
2022/04/08 03:31:13;;;;;;;;;0.25;0.25;;;;;10.91;57.20;99604.69;4826918;29;45652;-86
2022/04/08 03:33:39;;;;;;;;;1.00;0.25;;;;;10.91;57.23;99602.06;4826689;29;45717;-83
2022/04/08 03:36:05;;;;;;;;;0.75;0.00;;;;;10.91;57.57;99602.06;4826164;29;45745;-84
2022/04/08 03:38:33;;;;;;;;;0.75;0.75;;;;;10.95;57.50;99610.50;4827241;29;45689;-84
2022/04/08 03:40:59;;;;;;;;;0.00;0.00;;;;;10.99;57.66;99603.19;4810679;29;45631;-85
2022/04/08 03:43:24;;;;;;;;;1.25;0.00;;;;;11.01;58.50;99606.53;4826917;29;45480;-84
2022/04/08 03:45:49;;;;;;;;;1.00;0.00;;;;;10.96;58.81;99599.03;4826689;29;46010;-83
2022/04/08 03:48:15;;;;;;;;;1.00;0.00;;;;;10.94;58.78;99580.03;4810686;29;45729;-83
2022/04/08 03:50:40;;;;;;;;;1.00;0.00;;;;;10.94;59.68;99580.03;4827314;29;45975;-83
2022/04/08 03:56:27;;;;;;;;;0.50;0.50;;;;;10.84;59.74;99553.00;4827016;29;45528;-84
2022/04/08 03:58:52;;;;;;;;;1.00;0.00;;;;;10.87;60.28;99548.28;4809996;29;45910;-84
2022/04/08 04:01:18;;;;;;;;;0.00;0.00;;;;;10.84;60.22;99538.09;4793860;29;45640;-85
2022/04/08 04:03:43;;;;;;;;;1.00;0.00;;;;;10.90;60.51;99544.59;4808905;29;48024;-83
2022/04/08 04:06:09;;;;;;;;;1.00;0.00;;;;;10.87;60.61;99537.81;4825516;29;45659;-84
2022/04/08 04:11:57;;;;;;;;;0.50;0.25;;;;;10.88;60.43;99522.91;4826235;29;45535;-86
2022/04/08 04:14:23;;;;;;;;;0.75;0.00;;;;;10.91;60.30;99520.84;4827494;29;46822;-85
2022/04/08 04:16:48;;;;;;;;;1.25;0.00;;;;;10.92;60.48;99508.56;4825704;29;45645;-86
2022/04/08 04:19:14;;;;;;;;;0.00;0.00;;;;;10.94;60.48;99507.47;4809478;29;45710;-85
2022/04/08 04:21:39;;;;;;;;;0.25;0.00;;;;;10.90;60.73;99487.75;4826611;29;45798;-87
2022/04/08 04:24:05;;;;;;;;;0.00;0.00;;;;;10.94;60.93;99490.94;4827486;29;46830;-88
2022/04/08 04:26:31;;;;;;;;;1.50;1.00;;;;;10.94;60.90;99483.91;4826422;29;46482;-88
2022/04/08 04:28:56;;;;;;;;;0.00;0.00;;;;;10.96;60.64;99486.34;4827049;29;45769;-88
2022/04/08 04:31:21;;;;;;;;;1.50;0.50;;;;;11.01;60.65;99480.72;4808783;29;45695;-85
2022/04/08 04:33:47;;;;;;;;;0.00;0.00;;;;;11.05;60.61;99476.84;4824955;29;46650;-85
2022/04/08 04:36:13;;;;;;;;;1.50;0.00;;;;;11.04;60.79;99470.78;4824794;29;45769;-84
2022/04/08 04:41:59;;;;;;;;;0.25;0.00;;;;;11.10;60.70;99461.53;4823551;29;45753;-87
2022/04/08 04:44:27;;;;;;;;;0.75;0.00;;;;;11.10;60.64;99457.13;4809171;29;49060;-87
2022/04/08 04:46:53;;;;;;;;;0.75;0.00;;;;;11.12;60.59;99457.78;4825801;29;46111;-85
2022/04/08 04:49:18;;;;;;;;;1.00;0.00;;;;;11.12;60.50;99441.25;4825255;29;45683;-85
2022/04/08 04:51:43;;;;;;;;;0.00;0.00;;;;;11.11;60.62;99429.13;4825472;29;45676;-85
2022/04/08 04:57:31;;;;;;;;;0.75;0.00;;;;;11.11;60.43;99410.75;4824624;29;46120;-87
2022/04/08 04:59:56;;;;;;;;;1.00;1.00;;;;;11.13;60.69;99411.44;4824870;29;45670;-87
2022/04/08 05:02:22;;;;;;;;;1.25;0.00;;;;;11.12;60.71;99400.13;4824707;29;45654;-86
2022/04/08 05:04:47;;;;;;;;;0.75;0.75;;;;;11.17;60.64;99404.97;4824631;29;46293;-87
2022/04/08 05:07:13;;;;;;;;;0.50;0.00;;;;;11.17;60.72;99397.94;4824902;29;46495;-87
2022/04/08 05:09:39;;;;;;;;;1.00;0.00;;;;;11.13;60.71;99382.59;4830161;29;45615;-83
2022/04/08 05:12:06;;;;;;;;;0.00;0.00;;;;;11.17;61.09;99381.38;4835917;29;45649;-83
2022/04/08 05:14:31;;;;;;;;;1.00;0.00;;;;;11.13;61.22;99369.50;4833212;29;46666;-86
2022/04/08 05:16:58;;;;;;;;;0.00;0.00;;;;;11.17;60.94;99366.47;4828515;29;45616;-85
2022/04/08 05:19:24;;;;;;;;;1.00;0.00;;;;;11.19;60.85;99366.31;4824616;29;45556;-85
2022/04/08 05:21:49;;;;;;;;;0.00;0.00;;;;;11.14;61.04;99353.63;4808197;29;46033;-85
2022/04/08 05:27:38;;;;;;;;;4.50;3.25;;;;;11.20;60.91;99357.47;4824224;29;45638;-84
2022/04/08 05:30:06;;;;;;;;;9.00;5.25;;;;;11.19;60.85;99351.41;4807625;29;45872;-86
2022/04/08 05:32:31;;;;;;;;;12.00;8.50;;;;;11.21;60.84;99341.59;4824708;29;45663;-85
2022/04/08 05:34:56;;;;;;;;;8.00;7.75;;;;;11.19;61.04;99333.06;4824552;29;45621;-86
2022/04/08 05:37:22;;;;;;;;;13.25;12.50;;;;;11.23;61.08;99341.44;4810406;29;47749;-87
2022/04/08 05:43:09;;;;;;;;;0.00;0.00;;;;;11.19;60.70;99317.31;4841243;29;45356;-88
2022/04/08 05:45:35;;;;;;;;;1.00;1.00;;;;;11.22;60.89;99316.22;4838506;29;45513;-87
2022/04/08 05:48:05;;;;;;;;;1.50;1.00;;;;;11.25;60.74;99316.75;4831473;29;45619;-87
2022/04/08 05:50:30;;;;;;;;;0.50;0.25;;;;;11.24;60.89;99306.41;4824944;29;45697;-87
2022/04/08 05:52:56;;;;;;;;;0.75;0.00;;;;;11.24;60.84;99301.16;4824401;29;45788;-87
2022/04/08 05:55:21;;;;;;;;;0.75;0.75;;;;;11.24;60.89;99291.50;4824112;29;45685;-85
2022/04/08 05:57:47;;;;;;;;;0.00;0.00;;;;;11.25;60.91;99293.16;4824284;29;45690;-86
2022/04/08 06:00:14;;;;;;;;;1.00;0.75;;;;;11.24;61.07;99274.94;4809413;29;45818;-89
2022/04/08 06:02:43;;;;;;;;;2.00;0.00;;;;;11.30;61.32;99282.22;4809645;29;45595;-89
2022/04/08 06:05:09;;;;;;;;;0.00;0.00;;;;;11.26;61.34;99265.13;4811933;29;47641;-88
2022/04/08 06:07:35;;;;;;;;;0.75;0.75;;;;;11.26;61.43;99265.97;4826481;29;45742;-88
2022/04/08 06:13:25;;;;;;;;;1.00;0.00;;;;;11.24;61.45;99251.34;4833680;29;45690;-91
2022/04/08 06:15:53;;;;;;;;;1.00;0.00;;;;;11.28;61.58;99245.66;4814740;29;48857;-89
2022/04/08 06:18:19;;;;;;;;;1.00;0.75;;;;;11.25;61.55;99232.84;4828778;29;45912;-90
2022/04/08 06:20:46;;;;;;;;;1.00;1.00;;;;;11.26;61.87;99234.50;4817085;29;45801;-92
2022/04/08 06:23:11;;;;;;;;;1.25;0.50;;;;;11.29;61.58;99231.56;4831479;29;45677;-91
2022/04/08 06:25:37;;;;;;;;;1.00;0.00;;;;;11.30;61.77;99224.53;4835509;29;45459;-86
2022/04/08 06:28:04;;;;;;;;;0.00;0.00;;;;;11.27;61.80;99209.94;4835216;29;45540;-91
2022/04/08 06:30:36;;;;;;;;;1.75;0.25;;;;;11.27;61.67;99196.00;4833446;29;45745;-91
2022/04/08 06:33:06;;;;;;;;;2.00;1.00;;;;;11.27;61.65;99196.84;4811211;29;45594;-88
2022/04/08 06:35:32;;;;;;;;;1.25;0.25;;;;;11.29;61.82;99205.38;4826728;29;47144;-89
2022/04/08 06:38:06;;;;;;;;;11.50;8.50;;;;;11.26;61.79;99187.31;4826097;29;45688;-90
2022/04/08 06:43:53;;;;;;;;;1.50;0.25;;;;;11.29;62.20;99191.44;4826893;29;45654;-88
2022/04/08 06:46:21;;;;;;;;;2.00;1.00;;;;;11.28;62.05;99189.81;4830033;29;45548;-91
2022/04/08 06:48:46;;;;;;;;;1.50;1.00;;;;;11.26;61.63;99182.06;4833801;29;45598;-85
2022/04/08 06:51:22;;;;;;;;;1.00;1.00;;;;;11.24;61.64;99180.56;4820844;29;45667;-83
2022/04/08 06:53:48;;;;;;;;;3.50;3.00;;;;;11.23;61.76;99181.53;4826080;29;45501;-89
2022/04/08 06:56:13;;;;;;;;;0.00;0.00;;;;;11.20;61.62;99181.84;4829426;29;45688;-83
2022/04/08 06:58:39;;;;;;;;;0.00;0.00;;;;;11.24;61.93;99188.44;4809162;29;47245;-84
2022/04/08 07:01:07;;;;;;;;;2.00;1.00;;;;;11.22;61.73;99179.91;4825475;29;45670;-83
2022/04/08 07:03:33;;;;;;;;;0.75;0.75;;;;;11.25;61.98;99190.09;4826158;29;45575;-87
2022/04/08 07:05:59;;;;;;;;;2.00;1.00;;;;;11.24;61.82;99188.44;4825806;29;46379;-81
2022/04/08 07:08:27;;;;;;;;;3.00;1.00;;;;;11.19;61.97;99182.81;4827423;29;46711;-88
2022/04/08 07:14:15;;;;;;;;;1.75;1.00;;;;;11.20;62.08;99176.59;4828082;29;45565;-86
2022/04/08 07:16:45;;;;;;;;;0.50;0.50;;;;;11.26;62.34;99174.22;4811086;29;47484;-88
2022/04/08 07:19:11;;;;;;;;;1.00;0.75;;;;;11.25;62.61;99169.09;4810376;29;45677;-85
2022/04/08 07:21:37;;;;;;;;;4.00;2.00;;;;;11.22;62.29;99153.69;4824539;29;45873;-86
2022/04/08 07:24:03;;;;;;;;;1.00;1.00;;;;;11.20;62.56;99150.38;4809603;29;46003;-83
2022/04/08 07:26:29;;;;;;;;;1.75;1.75;;;;;11.24;62.61;99143.84;4826300;29;46448;-83
2022/04/08 07:28:55;;;;;;;;;3.00;2.00;;;;;11.22;62.65;99144.03;4825922;29;46146;-85
2022/04/08 07:31:21;;;;;;;;;2.00;2.00;;;;;11.23;62.43;99131.72;4826462;29;45820;-84
2022/04/08 07:33:47;;;;;;;;;3.00;3.00;;;;;11.23;62.80;99129.09;4811942;29;45728;-86
2022/04/08 07:36:13;;;;;;;;;5.25;3.25;;;;;11.17;63.04;99114.81;4826167;29;46415;-85
2022/04/08 07:38:38;;;;;;;;;2.25;1.00;;;;;11.16;62.63;99107.09;4808889;29;47778;-86
2022/04/08 07:44:25;;;;;;;;;1.00;1.00;;;;;11.14;62.61;99085.44;4824244;29;45709;-86
2022/04/08 07:46:51;;;;;;;;;1.75;1.00;;;;;11.08;63.00;99071.13;4825649;29;45631;-82
2022/04/08 07:49:16;;;;;;;;;0.25;0.00;;;;;11.11;62.73;99065.63;4835382;29;46036;-86
2022/04/08 07:51:42;;;;;;;;;0.50;0.50;;;;;11.06;62.53;99060.00;4835602;29;45573;-83
2022/04/08 07:54:07;;;;;;;;;1.00;1.00;;;;;11.07;62.55;99066.03;4832829;29;45522;-85
2022/04/08 07:59:54;;;;;;;;;1.00;0.75;;;;;10.99;62.81;99050.25;4825941;29;45790;-89
2022/04/08 08:02:20;;;;;;;;;0.00;0.00;;;;;10.96;62.86;99043.50;4828678;29;45575;-86
2022/04/08 08:04:45;;;;;;;;;1.25;0.75;;;;;10.90;62.62;99042.31;4829737;29;45793;-82
2022/04/08 08:07:11;;;;;;;;;1.00;0.75;;;;;10.81;62.83;99035.34;4824485;29;45801;-82
2022/04/08 08:09:36;;;;;;;;;0.50;0.50;;;;;10.83;63.35;99025.56;4825141;29;45981;-82
2022/04/08 08:12:03;;;;;;;;;4.50;2.00;;;;;10.75;63.73;99001.88;4808124;29;45540;-85
2022/04/08 08:14:29;;;;;;;;;2.50;1.00;;;;;10.74;63.70;99013.34;4823405;29;45697;-83
2022/04/08 08:16:55;;;;;;;;;3.00;2.00;;;;;10.71;64.01;99020.69;4824167;29;45651;-81
2022/04/08 08:19:20;;;;;;;;;2.50;2.00;;;;;10.68;63.90;99002.66;4826276;29;46003;-81
2022/04/08 08:21:46;;;;;;;;;2.00;1.00;;;;;10.65;64.15;98995.09;4826820;29;45701;-84
2022/04/08 08:24:11;;;;;;;;;1.00;0.00;;;;;10.57;64.23;98984.53;4825287;29;45536;-79
2022/04/08 08:29:58;;;;;;;;;2.50;1.00;;;;;10.54;64.29;98985.66;4824224;29;46124;-84
2022/04/08 08:32:23;;;;;;;;;1.00;1.00;;;;;10.52;64.58;98969.28;4824482;29;45595;-82
2022/04/08 08:34:49;;;;;;;;;2.50;1.00;;;;;10.48;64.45;98960.06;4824595;29;45690;-82
2022/04/08 08:37:14;;;;;;;;;1.00;1.00;;;;;10.51;64.39;98971.06;4823894;29;45828;-84
2022/04/08 08:39:39;;;;;;;;;0.50;0.50;;;;;10.49;64.19;98964.31;4824154;29;45665;-82
2022/04/08 08:45:33;;;;;;;;;1.25;1.25;;;;;10.42;64.05;98950.19;4822390;29;45697;-85
2022/04/08 08:48:00;;;;;;;;;1.00;1.00;;;;;10.41;64.50;98953.78;4807337;29;47382;-83
2022/04/08 08:50:27;;;;;;;;;0.00;0.00;;;;;10.38;64.54;98954.91;4824168;29;46162;-83
2022/04/08 08:52:53;;;;;;;;;0.50;0.50;;;;;10.40;64.95;98947.72;4824733;29;45558;-84
2022/04/08 08:55:19;;;;;;;;;1.00;0.00;;;;;10.41;64.94;98938.91;4822581;29;45568;-85
2022/04/08 08:57:45;;;;;;;;;1.25;1.00;;;;;10.40;64.80;98934.63;4806184;29;46774;-85
2022/04/08 09:00:16;;;;;;;;;0.75;0.50;;;;;10.41;64.90;98915.34;4823870;29;46179;-85
2022/04/08 09:02:45;;;;;;;;;0.00;0.00;;;;;10.41;64.92;98891.78;4807334;29;45603;-82
2022/04/08 09:05:19;;;;;;;;;0.00;0.00;;;;;10.42;64.94;98900.44;4824115;29;45524;-83
2022/04/08 09:08:14;;;;;;;;;0.75;0.75;;;;;10.42;64.91;98887.34;4823960;29;46190;-87
2022/04/08 09:10:48;;;;;;;;;1.25;1.25;;;;;10.42;64.87;98882.09;4733951;29;48443;-84
2022/04/08 09:13:21;;;;;;;;;1.00;1.00;;;;;10.37;64.80;98872.09;4749707;29;45915;-87
2022/04/08 09:15:53;;;;;;;;;2.75;2.50;;;;;10.39;64.90;98866.72;4749698;29;45629;-83
2022/04/08 09:18:19;;;;;;;;;0.75;0.75;;;;;10.31;65.07;98848.34;4734434;29;47809;-84
2022/04/08 09:20:46;;;;;;;;;2.75;1.00;;;;;10.35;65.18;98863.59;4748818;29;46426;-83
2022/04/08 09:23:13;;;;;;;;;1.25;1.00;;;;;10.30;65.08;98857.97;4749121;29;45663;-82
2022/04/08 09:25:41;;;;;;;;;1.75;1.25;;;;;10.29;65.31;98847.66;4749025;29;45753;-81
2022/04/08 09:28:11;;;;;;;;;2.00;0.50;;;;;10.26;65.59;98825.22;4749299;29;45925;-81
2022/04/08 09:30:38;;;;;;;;;0.00;0.00;;;;;10.22;65.42;98842.19;4749288;29;46326;-80
2022/04/08 09:33:17;;;;;;;;;1.25;1.00;;;;;10.16;65.62;98831.47;4749081;29;45633;-82
2022/04/08 09:35:43;;;;;;;;;1.00;1.00;;;;;10.18;65.72;98853.13;4750321;29;45607;-89
2022/04/08 09:38:08;;;;;;;;;1.50;1.50;;;;;10.11;65.96;98845.81;4750614;29;47582;-88
2022/04/08 09:46:45;;;;;;;;;2.00;0.75;;;;;10.09;66.26;98873.13;4775734;29;45630;-90
2022/04/08 09:49:10;;;;;;;;;1.00;0.00;;;;;10.05;65.91;98882.22;4825603;29;46626;-88
2022/04/08 09:51:38;;;;;;;;;2.00;2.00;;;;;10.08;66.53;98874.09;4824958;29;45681;-89
2022/04/08 09:54:06;;;;;;;;;1.00;1.00;;;;;10.01;66.21;98862.56;4808208;29;45581;-88
2022/04/08 09:56:34;;;;;;;;;1.00;1.00;;;;;10.00;66.25;98885.28;4810135;29;46069;-88
2022/04/08 09:59:15;;;;;;;;;1.00;1.00;;;;;9.95;66.07;98884.91;4812859;29;47750;-88
2022/04/08 10:01:44;;;;;;;;;1.00;1.00;;;;;9.92;66.29;98863.47;4827745;29;48068;-86
2022/04/08 10:04:11;;;;;;;;;1.00;1.00;;;;;9.95;66.26;98835.22;4829760;29;45753;-87
2022/04/08 10:06:38;;;;;;;;;1.00;0.00;;;;;9.93;66.42;98815.41;4823377;29;45704;-86
2022/04/08 10:09:06;;;;;;;;;2.75;2.00;;;;;9.94;66.62;98841.41;4825265;29;46658;-88
2022/04/08 10:11:50;;;;;;;;;0.75;0.75;;;;;9.93;65.96;98901.75;4807646;29;47805;-88
2022/04/08 10:14:37;;;;;;;;;1.00;1.00;;;;;9.80;67.41;98894.22;4832216;29;45590;-86
2022/04/08 10:17:03;;;;;;;;;1.00;1.00;;;;;9.68;67.74;98849.16;4825606;29;45685;-87
2022/04/08 10:20:09;;;;;;;;;2.00;1.00;;;;;9.59;68.69;98862.28;4814377;29;47519;-88
2022/04/08 10:22:41;;;;;;;;;1.00;1.00;;;;;9.44;69.44;98848.88;4722923;29;47267;-88
2022/04/08 10:25:17;;;;;;;;;1.00;1.00;;;;;9.32;69.69;98839.59;4734283;29;45818;-87
2022/04/08 10:27:44;;;;;;;;;3.50;3.00;;;;;9.24;70.11;98813.34;4748835;29;45717;-89
2022/04/08 10:30:14;;;;;;;;;3.50;2.00;;;;;9.22;70.03;98821.34;4735249;29;48574;-89
2022/04/08 10:32:40;;;;;;;;;3.00;2.00;;;;;9.25;70.41;98823.66;4755787;29;46185;-90
2022/04/08 10:35:18;;;;;;;;;1.50;1.25;;;;;9.26;70.33;98819.25;4751943;29;45612;-85
2022/04/08 10:38:05;;;;;;;;;2.00;2.00;;;;;9.25;70.06;98797.53;4752707;29;45883;-87
2022/04/08 10:40:33;;;;;;;;;5.00;3.00;;;;;9.27;70.49;98771.25;4738309;29;47355;-87
2022/04/08 10:43:05;;;;;;;;;3.00;3.00;;;;;9.28;70.85;98765.06;4755340;29;45696;-85
2022/04/08 10:45:31;;;;;;;;;2.50;2.50;;;;;9.28;70.85;98744.94;4754552;29;45696;-86
2022/04/08 10:48:01;;;;;;;;;3.00;3.00;;;;;9.30;70.88;98734.38;4737442;29;45789;-85
2022/04/08 10:50:33;;;;;;;;;4.00;2.50;;;;;9.32;70.82;98715.94;4749659;29;45798;-85
2022/04/08 10:53:11;;;;;;;;;6.75;5.50;;;;;9.37;70.94;98724.97;4789470;29;46127;-84
2022/04/08 10:55:54;;;;;;;;;5.75;5.25;;;;;9.39;70.80;98746.56;4808275;29;45852;-86
2022/04/08 10:58:31;;;;;;;;;6.75;6.50;;;;;9.48;70.78;98758.75;4822411;29;45919;-85
2022/04/08 11:00:56;;;;;;;;;5.50;4.50;;;;;9.50;70.76;98717.56;4805779;29;48341;-84
2022/04/08 11:03:27;;;;;;;;;7.00;6.75;;;;;9.54;70.99;98759.94;4822625;29;46327;-86
2022/04/08 11:05:52;;;;;;;;;3.00;2.00;;;;;9.48;71.08;98797.94;4823488;29;45598;-83
2022/04/08 11:08:18;;;;;;;;;2.75;2.50;;;;;9.41;71.32;98739.38;4822714;29;45632;-82
2022/04/08 11:10:44;;;;;;;;;3.25;3.25;;;;;9.45;71.07;98760.81;4826662;29;45484;-88
2022/04/08 11:13:12;;;;;;;;;2.00;2.00;;;;;9.46;71.15;98758.06;4811546;29;46010;-85
2022/04/08 11:15:43;;;;;;;;;5.50;4.00;;;;;9.55;71.03;98745.91;4825638;29;45764;-83
2022/04/08 11:18:09;;;;;;;;;6.75;5.50;;;;;9.56;71.52;98752.75;4822488;29;45714;-82
2022/04/08 11:20:35;;;;;;;;;5.00;3.75;;;;;9.68;71.33;98782.97;4822386;29;46359;-83
2022/04/08 11:23:00;;;;;;;;;6.00;5.00;;;;;9.71;71.37;98755.69;4803280;29;47120;-82
2022/04/08 11:25:30;;;;;;;;;12.50;12.00;;;;;9.80;71.59;98749.56;4823236;29;45702;-83
2022/04/08 11:28:07;;;;;;;;;8.50;8.00;;;;;9.95;71.27;98750.69;4806579;29;45894;-86
2022/04/08 11:30:39;;;;;;;;;6.75;6.25;;;;;10.02;71.41;98757.78;4821844;29;46597;-82
2022/04/08 11:33:17;;;;;;;;;10.50;8.50;;;;;10.08;71.55;98735.44;4807729;29;48515;-85
2022/04/08 11:35:43;;;;;;;;;5.75;4.25;;;;;10.18;71.43;98730.13;4822738;29;45896;-84
2022/04/08 11:38:16;;;;;;;;;7.50;7.00;;;;;10.31;71.22;98743.66;4822316;29;45883;-84
2022/04/08 11:40:42;;;;;;;;;7.50;6.75;;;;;10.34;71.04;98719.78;4808752;29;47528;-84
2022/04/08 11:43:17;;;;;;;;;7.50;7.00;;;;;10.43;71.19;98685.63;4825064;29;46240;-85
2022/04/08 11:45:49;;;;;;;;;6.75;6.75;;;;;10.45;71.14;98704.63;4825231;29;45855;-83
2022/04/08 11:48:17;;;;;;;;;13.00;9.50;;;;;10.41;71.11;98724.25;4826410;29;45587;-83
2022/04/08 11:50:43;;;;;;;;;6.00;6.00;;;;;10.40;71.15;98722.59;4825524;29;45575;-84
2022/04/08 11:53:19;;;;;;;;;5.00;5.00;;;;;10.45;70.83;98717.72;4824910;29;45594;-82
2022/04/08 11:55:56;;;;;;;;;6.50;6.50;;;;;10.45;71.28;98703.81;4825545;29;45546;-84
2022/04/08 11:58:22;;;;;;;;;8.00;6.75;;;;;10.47;70.84;98717.56;4825224;29;45593;-83
2022/04/08 12:00:50;;;;;;;;;8.00;8.00;;;;;10.49;70.79;98712.97;4807897;29;48337;-85
2022/04/08 12:03:20;;;;;;;;;32.25;30.25;;;;;10.51;70.72;98706.63;4824738;29;45530;-81
2022/04/08 12:05:47;;;;;;;;;11.00;7.00;;;;;10.57;70.90;98688.66;4825062;29;45962;-82
2022/04/08 12:08:13;;;;;;;;;12.75;12.25;;;;;10.59;71.00;98689.31;4825018;29;45677;-82
2022/04/08 12:10:40;;;;;;;;;13.50;11.25;;;;;10.60;71.10;98683.09;4808580;29;46476;-83
2022/04/08 12:13:19;;;;;;;;;9.25;9.00;;;;;10.67;70.97;98671.03;4824695;29;45714;-83
2022/04/08 12:15:48;;;;;;;;;13.25;13.00;;;;;10.69;70.99;98671.69;4809721;29;46024;-83
2022/04/08 12:18:22;;;;;;;;;11.75;11.75;;;;;10.72;71.03;98663.50;4809196;29;45864;-82
2022/04/08 12:20:52;;;;;;;;;11.25;8.75;;;;;10.76;71.06;98643.88;4824767;29;45507;-83
2022/04/08 12:23:21;;;;;;;;;7.75;6.75;;;;;10.76;70.98;98631.59;4824858;29;46496;-84
2022/04/08 12:25:50;;;;;;;;;8.75;8.00;;;;;10.79;71.13;98622.63;4824569;29;45622;-84
2022/04/08 12:28:15;;;;;;;;;6.50;6.50;;;;;10.82;71.02;98627.53;4824790;29;45547;-84
2022/04/08 12:30:41;;;;;;;;;10.25;9.25;;;;;10.88;70.64;98637.38;4825500;29;45984;-81
2022/04/08 12:33:06;;;;;;;;;8.50;8.50;;;;;10.91;70.62;98656.22;4824553;29;45751;-84
2022/04/08 12:35:32;;;;;;;;;9.25;9.25;;;;;10.88;70.63;98703.69;4824179;29;45637;-84
2022/04/08 12:37:59;;;;;;;;;7.00;7.00;;;;;10.75;70.36;98669.25;4824703;29;45627;-82
2022/04/08 12:40:25;;;;;;;;;10.00;7.25;;;;;10.68;70.44;98694.44;4807811;29;48630;-82
2022/04/08 12:42:50;;;;;;;;;7.25;6.25;;;;;10.63;70.89;98681.00;4824643;29;46078;-85
2022/04/08 12:49:06;;;;;;;;;9.25;7.25;;;;;10.49;71.24;98650.16;4823860;29;45930;-83
2022/04/08 12:51:32;;;;;;;;;8.50;7.00;;;;;10.42;71.11;98668.28;4824541;29;46394;-83
2022/04/08 12:53:58;;;;;;;;;7.25;6.50;;;;;10.39;71.71;98714.88;4823922;29;46096;-85
2022/04/08 12:56:26;;;;;;;;;4.00;4.00;;;;;10.28;71.94;98718.59;4825002;29;45957;-87
2022/04/08 12:58:52;;;;;;;;;7.00;7.00;;;;;10.16;71.66;98692.78;4825735;29;45774;-84
2022/04/08 13:01:18;;;;;;;;;8.75;7.50;;;;;10.03;72.01;98719.38;4824595;29;46835;-82
2022/04/08 13:03:43;;;;;;;;;6.50;5.00;;;;;9.86;72.33;98697.50;4824785;29;45981;-84